Time;durP1;ratioP1;P1;durP2;ratioP2;P2;SDS_P1;SDS_P2;PMS_P1;PMS_P2;Temp;Humidity;BMP_temperature;BMP_pressure;BME280_temperature;BME280_humidity;BME280_pressure;Samples;Min_cycle;Max_cycle;Signal;HPM_P1;HPM_P2
2024/01/14 07:56:14;;;;;;;63.78;18.55;;;;;;;-6.87;100.00;96314.34;2090557;28;20562;-61
2024/01/14 07:57:16;;;;;;;71.25;23.45;;;;;;;-6.87;100.00;96311.81;2089682;28;20200;-61
2024/01/14 08:02:14;;;;;;;64.82;19.83;;;;;;;-6.77;98.88;96313.72;2122865;27;20570;-61
2024/01/14 08:12:29;;;;;;;65.32;19.88;;;;;;;-5.89;94.48;96304.03;2088946;28;20552;-61
2024/01/14 08:13:30;;;;;;;69.75;21.77;;;;;;;-5.74;93.33;96298.28;2090022;28;20190;-61
2024/01/14 08:14:32;;;;;;;82.20;23.08;;;;;;;-5.49;92.04;96296.91;2091120;28;20200;-61
2024/01/14 08:15:33;;;;;;;65.95;22.40;;;;;;;-5.28;91.88;96288.69;2075499;28;20225;-61
2024/01/14 08:16:49;;;;;;;63.42;22.85;;;;;;;-5.06;89.98;96291.47;2075892;28;20194;-61
2024/01/14 08:17:51;;;;;;;64.93;22.58;;;;;;;-4.66;88.64;96285.91;2075533;28;20751;-61
2024/01/14 08:18:52;;;;;;;72.80;24.00;;;;;;;-4.47;87.77;96281.84;2075355;28;20201;-61
2024/01/14 08:19:54;;;;;;;71.15;23.23;;;;;;;-4.45;86.53;96268.25;2075847;28;20202;-61
2024/01/14 08:20:56;;;;;;;80.30;25.52;;;;;;;-4.27;86.37;96287.97;2074671;28;20198;-61
2024/01/14 08:21:58;;;;;;;57.08;22.73;;;;;;;-3.84;84.96;96282.28;2074877;28;20198;-61
2024/01/14 08:22:59;;;;;;;69.28;23.20;;;;;;;-3.63;83.66;96281.56;2074046;28;20743;-61
2024/01/14 08:24:03;;;;;;;61.33;20.45;;;;;;;-3.52;82.66;96275.66;2074228;28;20233;-61
2024/01/14 08:25:07;;;;;;;65.72;22.75;;;;;;;-4.04;82.38;96260.91;2074058;28;20209;-61
2024/01/14 08:26:09;;;;;;;72.65;23.65;;;;;;;-3.85;82.73;96270.38;2074143;28;20558;-61
2024/01/14 08:27:10;;;;;;;58.50;21.80;;;;;;;-3.81;82.01;96269.56;2073442;28;20202;-64
2024/01/14 08:28:12;;;;;;;66.88;23.25;;;;;;;-3.86;82.50;96267.81;2074911;28;20252;-61
2024/01/14 08:29:14;;;;;;;62.25;23.08;;;;;;;-3.49;81.45;96268.88;2074673;28;20642;-61
2024/01/14 08:30:26;;;;;;;60.17;21.48;;;;;;;-3.32;80.79;96258.72;2074348;28;20222;-61
2024/01/14 08:31:27;;;;;;;66.70;24.25;;;;;;;-3.44;80.98;96261.22;2076421;28;20194;-61
2024/01/14 08:32:30;;;;;;;61.03;22.23;;;;;;;-3.47;80.16;96261.22;2075641;28;20641;-61
2024/01/14 08:33:31;;;;;;;57.65;22.08;;;;;;;-3.65;80.94;96257.72;2074380;28;20205;-62
2024/01/14 08:34:33;;;;;;;65.93;23.13;;;;;;;-3.86;81.51;96267.81;2075707;28;20202;-61
2024/01/14 08:35:35;;;;;;;65.97;22.23;;;;;;;-3.67;81.81;96261.97;2074001;28;20217;-62
2024/01/14 08:36:36;;;;;;;67.60;24.73;;;;;;;-3.51;81.42;96259.50;2074891;28;20204;-62
2024/01/14 08:37:40;;;;;;;61.97;22.67;;;;;;;-2.88;80.25;96269.03;2075232;28;20563;-62
2024/01/14 08:38:42;;;;;;;65.80;23.05;;;;;;;-3.01;79.24;96247.72;2076096;28;20198;-62
2024/01/14 08:39:43;;;;;;;61.67;22.08;;;;;;;-2.64;78.08;96266.53;2073220;28;20626;-61
2024/01/14 08:40:45;;;;;;;61.63;23.30;;;;;;;-2.75;78.25;96260.56;2073627;28;20232;-62
2024/01/14 08:41:46;;;;;;;51.85;21.17;;;;;;;-2.30;77.70;96258.03;2074540;28;20205;-62
2024/01/14 08:42:48;;;;;;;54.63;20.80;;;;;;;-2.18;75.78;96245.22;2076049;28;20248;-61
2024/01/14 08:43:49;;;;;;;60.22;23.80;;;;;;;-1.86;75.74;96257.13;2075595;28;20201;-62
2024/01/14 08:44:51;;;;;;;55.85;21.33;;;;;;;-145.49;100.00;55703.94;2075406;28;20198;-62
2024/01/14 08:45:53;;;;;;;56.28;20.10;;;;;;;-145.49;100.00;55703.94;2076477;28;20827;-63
2024/01/14 08:46:55;;;;;;;56.08;21.15;;;;;;;-145.49;100.00;55703.94;2075759;28;20198;-62
2024/01/14 08:47:57;;;;;;;59.88;22.88;;;;;;;-145.49;100.00;55703.94;2073583;28;20206;-62
2024/01/14 08:48:58;;;;;;;49.58;20.40;;;;;;;-145.49;100.00;55703.94;2074744;28;20208;-62
2024/01/14 08:50:04;;;;;;;62.08;23.33;;;;;;;-145.49;100.00;55703.94;2076312;28;20206;-61
2024/01/14 08:51:09;;;;;;;57.00;23.23;;;;;;;-145.49;100.00;55703.94;2075866;28;20202;-62
2024/01/14 08:52:11;;;;;;;56.55;21.60;;;;;;;-145.49;100.00;55703.94;2076585;28;20221;-63
2024/01/14 08:53:13;;;;;;;61.90;22.55;;;;;;;-145.49;100.00;55703.94;2074872;28;20201;-63
2024/01/14 08:54:15;;;;;;;55.78;21.52;;;;;;;-145.49;100.00;55703.94;2067018;28;20261;-63
2024/01/14 08:55:16;;;;;;;57.05;21.05;;;;;;;-145.49;100.00;55703.94;2074200;28;20232;-63
2024/01/14 08:56:18;;;;;;;54.60;21.92;;;;;;;-145.49;100.00;55703.94;2076145;28;20293;-63
2024/01/14 08:57:19;;;;;;;56.83;21.50;;;;;;;-145.49;100.00;55703.94;2074359;28;20287;-61
2024/01/14 08:58:21;;;;;;;53.42;21.05;;;;;;;-145.49;100.00;55703.94;2073933;28;20225;-61
2024/01/14 08:59:22;;;;;;;54.83;21.25;;;;;;;-145.49;100.00;55703.94;2075135;28;20718;-61
2024/01/14 09:00:24;;;;;;;53.97;20.38;;;;;;;-145.49;100.00;55703.94;2074106;28;20277;-63
2024/01/14 09:01:28;;;;;;;56.55;21.77;;;;;;;-145.49;100.00;55703.94;2075252;28;20284;-64
2024/01/14 09:02:30;;;;;;;50.55;19.98;;;;;;;-145.49;100.00;55703.94;2075220;28;20197;-62
2024/01/14 09:03:31;;;;;;;55.90;21.65;;;;;;;-145.49;100.00;55703.94;2073687;28;20202;-61
2024/01/14 09:04:33;;;;;;;48.80;20.98;;;;;;;-145.49;100.00;55703.94;2074287;28;20208;-62
2024/01/14 09:05:34;;;;;;;55.90;22.48;;;;;;;-145.49;100.00;55703.94;2073173;28;20701;-62
2024/01/14 09:06:38;;;;;;;46.55;20.85;;;;;;;-145.49;100.00;55703.94;2073979;28;20202;-62
2024/01/14 09:07:39;;;;;;;57.13;21.38;;;;;;;-145.49;nan;55703.94;2072756;28;20825;-62
2024/01/14 09:08:41;;;;;;;52.83;19.30;;;;;;;-1.38;71.22;96244.16;2074445;28;20264;-62
2024/01/14 09:09:42;;;;;;;46.55;20.35;;;;;;;-1.06;71.66;96242.31;2072383;28;20295;-63
2024/01/14 09:10:47;;;;;;;53.70;20.20;;;;;;;-0.53;70.00;96237.72;2072992;28;20387;-63
2024/01/14 09:11:51;;;;;;;49.40;19.50;;;;;;;-0.52;68.53;96242.84;2074875;28;20229;-64
2024/01/14 09:12:52;;;;;;;44.95;20.02;;;;;;;-0.55;68.52;96245.41;2074313;28;20221;-64
2024/01/14 09:13:54;;;;;;;45.70;19.00;;;;;;;-0.35;67.87;96235.00;2074002;28;20260;-64
2024/01/14 09:14:55;;;;;;;48.90;19.60;;;;;;;0.05;67.12;96243.19;2069158;28;20204;-64
2024/01/14 09:15:57;;;;;;;43.05;17.92;;;;;;;0.52;66.38;96239.28;2074796;28;20568;-64
2024/01/14 09:16:58;;;;;;;46.00;19.88;;;;;;;0.36;65.62;96232.63;2074909;28;20289;-65
2024/01/14 09:18:00;;;;;;;49.85;20.15;;;;;;;0.39;65.66;96233.41;2084344;28;20739;-65
2024/01/14 09:19:01;;;;;;;41.75;18.02;;;;;;;-0.18;67.22;96241.69;2077363;28;20208;-64
2024/01/14 09:20:04;;;;;;;46.10;18.80;;;;;;;0.08;66.21;96240.63;2068846;28;20233;-65
2024/01/14 09:21:09;;;;;;;41.83;17.30;;;;;;;0.04;66.97;96241.50;2076937;28;20209;-65
2024/01/14 09:22:11;;;;;;;48.65;20.52;;;;;;;0.11;66.24;96235.44;2075243;28;20210;-65
2024/01/14 09:23:12;;;;;;;46.13;19.38;;;;;;;0.12;66.72;96229.44;2074321;28;20203;-65
2024/01/14 09:24:14;;;;;;;45.50;19.63;;;;;;;0.01;67.00;96236.41;2070528;28;20206;-65
2024/01/14 09:25:16;;;;;;;47.70;19.58;;;;;;;-0.14;67.12;96235.69;2067420;28;20230;-65
2024/01/14 09:26:17;;;;;;;46.03;18.38;;;;;;;-0.47;68.35;96236.81;2068036;28;20595;-65
2024/01/14 09:27:19;;;;;;;47.35;19.55;;;;;;;-0.35;68.03;96229.03;2068709;28;20746;-65
2024/01/14 09:28:20;;;;;;;43.97;18.20;;;;;;;-0.71;68.54;96231.84;2069723;28;20700;-65
2024/01/14 09:29:22;;;;;;;41.92;19.38;;;;;;;-0.75;69.42;96232.75;2071325;28;20280;-65
2024/01/14 09:30:23;;;;;;;48.78;18.38;;;;;;;-0.43;68.55;96228.22;2070098;28;20225;-65
2024/01/14 09:31:27;;;;;;;47.67;19.85;;;;;;;-1.03;69.24;96224.34;2069862;28;20711;-65
2024/01/14 09:32:29;;;;;;;47.95;19.08;;;;;;;-1.44;70.20;96187.00;2070831;28;20324;-65
2024/01/14 09:33:30;;;;;;;46.72;18.38;;;;;;;-0.85;69.41;96219.13;2069590;28;20414;-65
2024/01/14 09:34:33;;;;;;;47.63;18.38;;;;;;;-0.54;68.86;96218.88;2068969;28;20241;-65
2024/01/14 09:35:34;;;;;;;41.38;18.58;;;;;;;-0.37;68.30;96220.47;2067853;28;20227;-65
2024/01/14 09:36:38;;;;;;;46.45;20.80;;;;;;;-0.42;68.08;96217.09;2070330;28;20192;-65
2024/01/14 09:37:39;;;;;;;54.90;20.60;;;;;;;-0.14;68.01;96227.13;2072072;28;20209;-65
2024/01/14 09:38:40;;;;;;;48.70;18.58;;;;;;;-0.48;67.58;96222.28;2072009;28;20193;-65
2024/01/14 09:39:42;;;;;;;46.65;19.63;;;;;;;-0.46;68.70;96220.56;2068770;28;20195;-65
2024/01/14 09:40:45;;;;;;;49.88;21.15;;;;;;;0.04;67.92;96210.69;2068634;28;20726;-64
2024/01/14 09:41:57;;;;;;;51.00;20.80;;;;;;;0.55;66.22;96223.84;2069139;28;20609;-65
2024/01/14 09:43:02;;;;;;;46.85;19.45;;;;;;;0.49;65.97;96211.06;2068951;28;20195;-66
2024/01/14 09:44:04;;;;;;;40.58;17.48;;;;;;;0.12;65.19;96211.47;2070431;28;20653;-63
2024/01/14 09:45:07;;;;;;;50.20;18.55;;;;;;;0.67;65.78;96206.56;2066477;28;20210;-64
2024/01/14 09:46:09;;;;;;;61.63;25.20;;;;;;;0.67;64.46;96215.13;2071767;28;20569;-63
2024/01/14 09:47:12;;;;;;;40.63;16.83;;;;;;;0.62;65.21;96207.47;2070595;28;20543;-65
2024/01/14 09:48:15;;;;;;;44.72;17.90;;;;;;;0.46;65.48;96214.50;2069143;28;20292;-65
2024/01/14 09:49:20;;;;;;;44.58;18.70;;;;;;;0.97;64.66;96213.03;2068906;28;20267;-65
2024/01/14 09:50:22;;;;;;;49.08;20.90;;;;;;;0.72;64.42;96210.75;2071257;28;20321;-64
2024/01/14 09:51:29;;;;;;;44.72;19.90;;;;;;;0.80;64.94;96208.09;2071697;28;20271;-64
2024/01/14 09:52:31;;;;;;;50.40;18.58;;;;;;;0.59;65.26;96202.34;2068944;28;20205;-65
2024/01/14 09:53:33;;;;;;;41.38;18.40;;;;;;;1.12;64.81;96215.38;2076926;28;20268;-64
2024/01/14 09:54:35;;;;;;;46.63;20.25;;;;;;;1.06;64.12;96214.63;2070317;28;20198;-65
2024/01/14 09:55:37;;;;;;;44.38;19.65;;;;;;;1.35;63.79;96224.47;2065169;28;20222;-63
2024/01/14 09:56:41;;;;;;;46.83;18.08;;;;;;;0.29;64.03;96226.69;2070614;28;20209;-65
2024/01/14 09:57:47;;;;;;;49.90;20.23;;;;;;;0.80;65.22;96223.50;2067702;28;20199;-65
2024/01/14 09:58:51;;;;;;;48.35;19.77;;;;;;;1.40;63.70;96209.81;2069222;28;20239;-66
2024/01/14 09:59:54;;;;;;;44.25;18.70;;;;;;;1.44;63.23;96206.31;2067438;28;20257;-64
2024/01/14 10:00:59;;;;;;;41.75;18.05;;;;;;;1.72;62.65;96211.03;2069149;28;20228;-65
2024/01/14 10:02:02;;;;;;;47.17;20.90;;;;;;;1.87;61.93;96185.91;2067930;28;20244;-65
2024/01/14 10:03:04;;;;;;;40.78;19.00;;;;;;;1.81;61.89;96189.44;2070101;28;20264;-63
2024/01/14 10:04:07;;;;;;;45.15;19.45;;;;;;;1.72;62.52;96200.72;2067480;28;20364;-62
2024/01/14 10:05:09;;;;;;;43.38;19.33;;;;;;;0.82;63.50;96211.50;2064819;28;20199;-64
2024/01/14 10:06:12;;;;;;;45.42;18.70;;;;;;;1.51;62.70;96204.53;2069194;28;20255;-64
2024/01/14 10:07:14;;;;;;;39.15;17.17;;;;;;;1.31;63.20;96189.38;2068803;28;20199;-64
2024/01/14 10:08:17;;;;;;;37.45;15.93;;;;;;;1.81;62.91;96196.31;2082379;28;20265;-64
2024/01/14 10:09:18;;;;;;;41.53;17.20;;;;;;;1.67;63.14;96197.38;2083379;28;20196;-64
2024/01/14 10:10:20;;;;;;;43.20;18.73;;;;;;;1.20;63.26;96199.00;2068660;28;20226;-65
2024/01/14 10:11:21;;;;;;;48.60;21.20;;;;;;;1.21;63.64;96180.13;2070520;28;20285;-65
2024/01/14 10:12:25;;;;;;;44.95;18.80;;;;;;;1.43;63.74;96181.47;2070186;28;20267;-65
2024/01/14 10:13:27;;;;;;;42.03;18.45;;;;;;;2.51;61.42;96183.00;2069971;28;20214;-64
2024/01/14 10:14:28;;;;;;;43.38;18.63;;;;;;;2.41;60.60;96178.03;2071648;28;20202;-65
2024/01/14 10:15:33;;;;;;;41.80;18.15;;;;;;;2.69;60.27;96182.63;2068517;28;20234;-65
2024/01/14 10:16:49;;;;;;;44.00;17.90;;;;;;;2.39;60.29;96171.19;2068495;28;20202;-65
2024/01/14 10:17:56;;;;;;;44.20;18.33;;;;;;;2.70;59.95;96178.31;2068152;28;20355;-65
2024/01/14 10:18:57;;;;;;;42.95;18.10;;;;;;;2.44;60.53;96177.13;2068246;28;20209;-65
2024/01/14 10:19:59;;;;;;;41.85;17.98;;;;;;;2.96;59.49;96177.75;2069483;28;20285;-64
2024/01/14 10:21:01;;;;;;;40.13;18.65;;;;;;;2.88;58.84;96177.06;2068587;28;20247;-65
2024/01/14 10:22:03;;;;;;;42.15;19.55;;;;;;;2.55;59.77;96170.00;2069240;28;20199;-65
2024/01/14 10:23:20;;;;;;;40.75;18.27;;;;;;;3.40;59.32;96175.03;2068373;28;20195;-65
2024/01/14 10:24:22;;;;;;;48.67;19.10;;;;;;;2.38;59.56;96179.81;2069120;28;20609;-65
2024/01/14 10:25:26;;;;;;;41.80;19.23;;;;;;;3.25;59.34;96177.09;2068014;28;20222;-65
2024/01/14 10:26:27;;;;;;;42.42;18.17;;;;;;;3.00;58.35;96143.25;2068381;28;20198;-65
2024/01/14 10:27:29;;;;;;;36.97;18.05;;;;;;;3.67;57.85;96188.13;2069872;28;20277;-60
2024/01/14 10:28:38;;;;;;;46.08;19.48;;;;;;;3.63;57.56;96184.81;2067346;28;20681;-60
2024/01/14 10:29:40;;;;;;;41.72;18.90;;;;;;;3.53;57.38;96172.97;2067448;28;20248;-60
2024/01/14 10:30:42;;;;;;;45.60;18.00;;;;;;;3.92;56.64;96163.41;2070348;28;20225;-60
2024/01/14 10:31:43;;;;;;;45.22;19.02;;;;;;;4.19;56.09;96171.31;2070058;28;20234;-61
2024/01/14 10:32:45;;;;;;;39.60;19.08;;;;;;;4.06;55.79;96159.59;2067976;28;20194;-60
2024/01/14 10:34:08;;;;;;;42.28;17.65;;;;;;;4.16;56.10;96173.13;2069072;28;20206;-60
2024/01/14 10:35:12;;;;;;;39.05;18.63;;;;;;;3.96;100.00;96174.53;2066204;28;20199;-60
2024/01/14 10:36:14;;;;;;;48.28;19.77;;;;;;;-145.49;100.00;55703.94;2068308;28;20549;-60
2024/01/14 10:37:16;;;;;;;44.28;20.35;;;;;;;3.96;56.44;96174.53;2070422;28;20368;-60
2024/01/14 10:38:21;;;;;;;41.35;17.98;;;;;;;4.25;55.87;96163.41;2067590;28;20259;-61
2024/01/14 10:39:22;;;;;;;42.30;20.40;;;;;;;3.97;56.20;96152.94;2068112;28;20722;-61
2024/01/14 10:40:24;;;;;;;41.83;17.42;;;;;;;4.33;55.94;96146.81;2069020;28;20261;-65
2024/01/14 10:41:25;;;;;;;43.55;18.75;;;;;;;-145.49;100.00;55703.94;2068906;28;20203;-65
2024/01/14 10:42:27;;;;;;;42.10;19.20;;;;;;;-145.49;100.00;55703.94;2081841;28;20205;-65
2024/01/14 10:43:29;;;;;;;43.35;18.75;;;;;;;-145.49;100.00;55703.94;2083534;28;20203;-65
2024/01/14 10:44:31;;;;;;;42.83;19.40;;;;;;;4.25;54.79;96121.19;2067518;28;20199;-65
2024/01/14 10:45:32;;;;;;;40.03;18.65;;;;;;;4.05;55.53;96137.22;2066537;28;20324;-65
2024/01/14 10:46:35;;;;;;;42.38;19.60;;;;;;;4.31;55.20;96126.19;2068532;28;20710;-60
2024/01/14 10:47:37;;;;;;;40.72;20.33;;;;;;;-98.02;55.30;96135.34;2068199;28;20203;-65
2024/01/14 10:48:41;;;;;;;36.85;17.23;;;;;;;4.65;55.01;96129.56;2067885;28;20804;-60
2024/01/14 10:49:44;;;;;;;44.35;19.20;;;;;;;5.26;54.43;96120.78;2068530;28;20247;-64
2024/01/14 10:50:52;;;;;;;37.67;17.90;;;;;;;4.89;53.37;96127.97;2067206;28;20230;-60
2024/01/14 10:52:07;;;;;;;45.20;19.38;;;;;;;5.44;54.01;96116.78;2067632;28;20674;-60
2024/01/14 10:53:18;;;;;;;42.20;19.02;;;;;;;-145.49;100.00;55703.94;2071201;28;20287;-60
2024/01/14 10:54:52;;;;;;;36.13;17.02;;;;;;;-145.49;100.00;55703.94;2070517;28;20716;-60
2024/01/14 10:56:00;;;;;;;38.53;19.80;;;;;;;-145.49;100.00;55703.94;2057415;28;20226;-60
2024/01/14 10:57:14;;;;;;;40.05;18.30;;;;;;;-145.49;100.00;55703.94;2067473;28;20210;-65
2024/01/14 10:58:24;;;;;;;42.40;19.33;;;;;;;-145.49;100.00;55703.94;2068511;28;20206;-66
2024/01/14 10:59:28;;;;;;;35.90;17.63;;;;;;;-145.49;100.00;55703.94;2066722;28;20598;-65
2024/01/14 11:00:35;;;;;;;42.55;19.80;;;;;;;-145.49;100.00;55703.94;2068681;28;20260;-65
2024/01/14 11:01:42;;;;;;;39.70;18.60;;;;;;;-145.49;100.00;55703.94;2068408;28;20243;-65
2024/01/14 11:02:44;;;;;;;40.80;18.80;;;;;;;-145.49;100.00;55703.94;2068862;28;20207;-65
2024/01/14 11:03:47;;;;;;;40.30;18.60;;;;;;;-145.49;100.00;55703.94;2068448;28;20288;-65
2024/01/14 11:04:54;;;;;;;43.45;19.58;;;;;;;-145.49;100.00;55703.94;2067938;28;20239;-65
2024/01/14 11:05:56;;;;;;;37.60;18.85;;;;;;;-145.49;100.00;55703.94;2067775;28;20726;-65
2024/01/14 11:06:58;;;;;;;37.50;17.25;;;;;;;-145.49;100.00;55703.94;2068191;28;21001;-67
2024/01/14 11:08:01;;;;;;;46.15;18.45;;;;;;;-145.49;100.00;55703.94;2068708;28;20202;-66
2024/01/14 11:09:03;;;;;;;40.72;18.73;;;;;;;-145.49;100.00;55703.94;2069173;28;20284;-65
2024/01/14 11:10:10;;;;;;;41.42;17.73;;;;;;;-145.49;100.00;55703.94;2061800;28;20229;-65
2024/01/14 11:11:20;;;;;;;36.38;16.52;;;;;;;-145.49;100.00;55703.94;2068760;28;20289;-65
2024/01/14 11:12:29;;;;;;;36.08;17.85;;;;;;;-145.49;100.00;55703.94;2067483;28;20234;-64
2024/01/14 11:13:49;;;;;;;38.75;17.35;;;;;;;-145.49;100.00;55703.94;2069083;28;20218;-65
2024/01/14 11:15:05;;;;;;;41.70;19.20;;;;;;;-145.49;100.00;55703.94;2069592;28;20252;-65
2024/01/14 11:16:21;;;;;;;48.63;19.52;;;;;;;-145.49;100.00;55703.94;2066787;28;20254;-65
2024/01/14 11:17:40;;;;;;;39.10;18.92;;;;;;;-145.49;100.00;55703.94;2067908;28;20198;-65
2024/01/14 11:18:58;;;;;;;38.03;16.95;;;;;;;-145.49;100.00;55703.94;2068160;28;20211;-65
2024/01/14 11:20:01;;;;;;;45.22;20.42;;;;;;;-145.49;100.00;55703.94;2066373;28;20246;-64
2024/01/14 11:21:24;;;;;;;35.15;18.70;;;;;;;-145.49;100.00;55703.94;2068422;28;20214;-65
2024/01/14 11:22:46;;;;;;;38.53;18.27;;;;;;;-145.49;100.00;55703.94;2068502;28;20206;-65
2024/01/14 11:23:57;;;;;;;44.25;18.77;;;;;;;-145.49;100.00;55703.94;2068395;28;20192;-65
2024/01/14 11:24:59;;;;;;;34.28;17.77;;;;;;;-145.49;100.00;55703.94;2066891;28;20239;-65
2024/01/14 11:26:01;;;;;;;41.67;19.48;;;;;;;-145.49;100.00;55703.94;2066483;28;20207;-65
2024/01/14 11:27:03;;;;;;;43.92;19.75;;;;;;;-145.49;100.00;55703.94;2069314;28;20258;-65
2024/01/14 11:28:16;;;;;;;41.28;20.35;;;;;;;-145.49;100.00;55703.94;2068669;28;20235;-65
2024/01/14 11:29:36;;;;;;;41.05;19.30;;;;;;;-145.49;100.00;55703.94;2068181;28;20228;-65
2024/01/14 11:30:46;;;;;;;39.95;19.73;;;;;;;-145.49;100.00;55703.94;2072465;28;20226;-65
2024/01/14 11:32:03;;;;;;;37.72;18.40;;;;;;;-145.49;100.00;55703.94;2076464;28;20202;-65
2024/01/14 11:33:40;;;;;;;37.40;17.40;;;;;;;-145.49;100.00;55703.94;2073860;28;20229;-65
2024/01/14 11:34:48;;;;;;;47.33;19.08;;;;;;;-145.49;100.00;55703.94;2077913;28;20200;-65
2024/01/14 11:35:51;;;;;;;40.83;17.45;;;;;;;-145.49;100.00;55703.94;2067286;28;20227;-65
2024/01/14 11:36:55;;;;;;;39.22;18.65;;;;;;;-145.49;100.00;55703.94;2067946;28;20837;-66
2024/01/14 11:37:57;;;;;;;45.33;20.40;;;;;;;-145.49;100.00;55703.94;2067244;28;20594;-65
2024/01/14 11:39:03;;;;;;;37.97;17.70;;;;;;;-145.49;100.00;55703.94;2067515;28;20293;-65
2024/01/14 11:40:15;;;;;;;39.85;18.33;;;;;;;-145.49;100.00;55703.94;2066786;28;20211;-65
2024/01/14 11:41:35;;;;;;;41.42;18.63;;;;;;;-145.49;100.00;55703.94;2067999;28;20208;-65
2024/01/14 11:42:49;;;;;;;42.17;20.73;;;;;;;-145.49;100.00;55703.94;2067345;28;20204;-65
2024/01/14 11:43:53;;;;;;;46.40;18.15;;;;;;;-145.49;100.00;55703.94;2065899;28;20195;-65
2024/01/14 11:44:54;;;;;;;44.30;18.98;;;;;;;-145.49;100.00;55703.94;2067960;28;20239;-65
2024/01/14 11:45:56;;;;;;;41.60;19.23;;;;;;;-145.49;100.00;55703.94;2068128;28;20236;-65
2024/01/14 11:46:57;;;;;;;40.95;18.52;;;;;;;-145.49;100.00;55703.94;2067753;28;21099;-65
2024/01/14 11:48:03;;;;;;;35.67;17.70;;;;;;;-145.49;100.00;55703.94;2068411;28;20204;-65
2024/01/14 11:49:10;;;;;;;41.17;17.90;;;;;;;-145.49;100.00;55703.94;2067753;28;20236;-65
2024/01/14 11:50:26;;;;;;;33.80;16.58;;;;;;;-145.49;100.00;55703.94;2069239;28;20220;-65
2024/01/14 11:51:28;;;;;;;37.45;18.63;;;;;;;-145.49;100.00;55703.94;2067276;28;20198;-65
2024/01/14 11:52:30;;;;;;;41.75;17.90;;;;;;;-145.49;100.00;55703.94;2067273;28;20591;-65
2024/01/14 11:53:34;;;;;;;39.03;18.13;;;;;;;-145.49;100.00;55703.94;2070224;28;20200;-65
2024/01/14 11:54:35;;;;;;;38.30;18.67;;;;;;;-145.49;100.00;55703.94;2067344;28;20200;-66
2024/01/14 11:55:38;;;;;;;40.28;18.50;;;;;;;-145.49;100.00;55703.94;2060913;28;20284;-65
2024/01/14 11:56:39;;;;;;;39.38;19.05;;;;;;;-145.49;100.00;55703.94;2067429;28;20205;-65
2024/01/14 11:57:41;;;;;;;36.78;17.40;;;;;;;-145.49;100.00;55703.94;2067322;28;20254;-65
2024/01/14 11:58:43;;;;;;;36.50;18.10;;;;;;;-145.49;100.00;55703.94;2069242;28;20235;-65
2024/01/14 11:59:45;;;;;;;42.22;18.20;;;;;;;-145.49;100.00;55703.94;2067202;28;20201;-65
2024/01/14 12:00:49;;;;;;;33.65;16.45;;;;;;;-145.49;100.00;55703.94;2067450;28;20318;-65
2024/01/14 12:01:52;;;;;;;41.50;18.65;;;;;;;-145.49;100.00;55703.94;2067664;28;20654;-65
2024/01/14 12:03:17;;;;;;;37.28;16.95;;;;;;;-145.49;100.00;55703.94;2067810;28;20753;-65
2024/01/14 12:04:23;;;;;;;35.88;17.98;;;;;;;-145.49;100.00;55703.94;2067470;28;20258;-65
2024/01/14 12:05:25;;;;;;;37.08;16.90;;;;;;;-145.49;100.00;55703.94;2061544;28;20588;-64
2024/01/14 12:06:26;;;;;;;37.45;16.83;;;;;;;-145.49;100.00;55703.94;2069249;28;20202;-66
2024/01/14 12:07:30;;;;;;;38.63;18.13;;;;;;;-145.49;100.00;55703.94;2068609;28;20201;-66
2024/01/14 12:08:32;;;;;;;38.22;19.65;;;;;;;-145.49;100.00;55703.94;2070413;28;20201;-65
2024/01/14 12:09:38;;;;;;;37.35;18.40;;;;;;;-145.49;100.00;55703.94;2075680;28;20884;-65
2024/01/14 12:10:43;;;;;;;48.17;21.58;;;;;;;-145.49;100.00;55703.94;2073176;28;20240;-66
2024/01/14 12:11:48;;;;;;;44.63;19.23;;;;;;;-145.49;100.00;55703.94;2073023;28;20213;-65
2024/01/14 12:12:50;;;;;;;42.95;19.17;;;;;;;-145.49;100.00;55703.94;2073070;28;20385;-65
2024/01/14 12:13:54;;;;;;;36.30;18.25;;;;;;;-145.49;100.00;55703.94;2069831;28;20206;-66
2024/01/14 12:15:08;;;;;;;40.72;19.52;;;;;;;-145.49;100.00;55703.94;2066566;28;20853;-65
2024/01/14 12:16:10;;;;;;;35.60;17.88;;;;;;;-145.49;100.00;55703.94;2074409;28;20530;-62
2024/01/14 12:17:13;;;;;;;41.13;18.42;;;;;;;-145.49;100.00;55703.94;2066133;28;20205;-60
2024/01/14 12:18:17;;;;;;;38.85;18.92;;;;;;;-145.49;100.00;55703.94;2060903;28;20655;-61
2024/01/14 12:19:19;;;;;;;36.65;17.88;;;;;;;-145.49;100.00;55703.94;2067404;28;20200;-61
2024/01/14 12:20:22;;;;;;;39.58;18.38;;;;;;;-145.49;100.00;55703.94;2068389;28;20284;-61
2024/01/14 12:21:26;;;;;;;37.50;17.15;;;;;;;-145.49;100.00;55703.94;2068908;28;20201;-60
2024/01/14 12:22:36;;;;;;;40.92;18.63;;;;;;;-145.49;100.00;55703.94;2069583;28;20539;-61
2024/01/14 12:23:37;;;;;;;41.00;19.38;;;;;;;-145.49;100.00;55703.94;2069137;28;20726;-60
2024/01/14 12:24:41;;;;;;;36.53;20.92;;;;;;;-145.49;100.00;55703.94;2068184;28;20208;-61
2024/01/14 12:25:43;;;;;;;39.92;19.92;;;;;;;-145.49;100.00;55703.94;2063213;28;20255;-61
2024/01/14 12:26:46;;;;;;;41.92;18.30;;;;;;;-145.49;100.00;55703.94;2069212;28;20292;-61
2024/01/14 12:27:48;;;;;;;37.17;17.52;;;;;;;-145.49;100.00;55703.94;2068832;28;20197;-61
2024/01/14 12:28:49;;;;;;;38.70;18.95;;;;;;;-145.49;100.00;55703.94;2068074;28;20604;-61
2024/01/14 12:29:51;;;;;;;39.53;18.75;;;;;;;-145.49;100.00;55703.94;2066961;28;20238;-60
2024/01/14 12:30:57;;;;;;;38.60;16.27;;;;;;;-145.49;100.00;55703.94;2064542;28;20681;-61
2024/01/14 12:32:05;;;;;;;42.70;18.73;;;;;;;-145.49;100.00;55703.94;2067733;28;20243;-61
2024/01/14 12:33:12;;;;;;;38.17;17.33;;;;;;;-145.49;100.00;55703.94;2065572;28;20659;-60
2024/01/14 12:34:14;;;;;;;39.33;17.35;;;;;;;-145.49;100.00;55703.94;2067079;28;20269;-60
2024/01/14 12:35:16;;;;;;;45.40;18.38;;;;;;;-145.49;100.00;55703.94;2062237;28;20199;-60
2024/01/14 12:36:18;;;;;;;37.97;16.63;;;;;;;-145.49;100.00;55703.94;2067223;28;20207;-61
2024/01/14 12:37:21;;;;;;;40.72;17.83;;;;;;;-145.49;100.00;55703.94;2067871;28;20230;-60
2024/01/14 12:38:23;;;;;;;40.38;18.88;;;;;;;-145.49;100.00;55703.94;2069943;28;20856;-61
2024/01/14 12:39:26;;;;;;;34.03;15.63;;;;;;;-145.49;100.00;55703.94;2069922;28;20294;-60
2024/01/14 12:40:28;;;;;;;40.95;17.65;;;;;;;-145.49;100.00;55703.94;2066088;28;20226;-60
2024/01/14 12:41:30;;;;;;;37.55;18.33;;;;;;;-145.49;100.00;55703.94;2067593;28;20253;-60
2024/01/14 12:42:52;;;;;;;42.28;18.75;;;;;;;-145.49;100.00;55703.94;2061500;28;20245;-60
2024/01/14 12:43:55;;;;;;;37.42;17.55;;;;;;;-145.49;100.00;55703.94;2067443;28;20294;-61
2024/01/14 12:44:59;;;;;;;40.22;16.75;;;;;;;-145.49;100.00;55703.94;2067496;28;20277;-60
2024/01/14 12:46:04;;;;;;;41.60;18.00;;;;;;;-145.49;100.00;55703.94;2067051;28;20381;-60
2024/01/14 12:47:06;;;;;;;34.20;15.70;;;;;;;-145.49;100.00;55703.94;2067646;28;20218;-61
2024/01/14 12:48:09;;;;;;;39.85;17.33;;;;;;;-145.49;100.00;55703.94;2067318;28;20710;-60
2024/01/14 12:49:11;;;;;;;39.53;17.50;;;;;;;-145.49;100.00;55703.94;2068063;28;20524;-60
2024/01/14 12:50:17;;;;;;;35.83;17.33;;;;;;;-145.49;100.00;55703.94;2067428;28;20219;-60
2024/01/14 12:51:20;;;;;;;42.92;17.25;;;;;;;-145.49;100.00;55703.94;2068251;28;20246;-60
2024/01/14 12:52:21;;;;;;;42.47;17.23;;;;;;;-145.49;100.00;55703.94;2067965;28;20209;-60
2024/01/14 12:53:25;;;;;;;39.85;18.10;;;;;;;-145.49;100.00;55703.94;2068787;28;20561;-60
2024/01/14 12:54:27;;;;;;;39.45;17.52;;;;;;;-145.49;100.00;55703.94;2067072;28;20269;-60
2024/01/14 12:55:30;;;;;;;36.60;17.30;;;;;;;-145.49;100.00;55703.94;2067427;28;20249;-60
2024/01/14 12:56:32;;;;;;;37.58;15.90;;;;;;;-145.49;100.00;55703.94;2066715;28;20280;-60
2024/01/14 12:57:33;;;;;;;37.95;17.48;;;;;;;-145.49;100.00;55703.94;2067939;28;20268;-60
2024/01/14 12:58:36;;;;;;;37.60;16.58;;;;;;;-145.49;100.00;55703.94;2066015;28;20243;-60
2024/01/14 12:59:37;;;;;;;40.53;16.20;;;;;;;-145.49;100.00;55703.94;2074927;28;20202;-60
2024/01/14 13:00:39;;;;;;;35.55;16.67;;;;;;;-145.49;100.00;55703.94;2072615;28;20234;-60